sensor_id;sensor_type;location;lat;lon;timestamp;temperature;humidity
52209;DHT22;38507;53.132;6.394;2023-10-09T00:00:24;13.90;99.90
52209;DHT22;38507;53.132;6.394;2023-10-09T00:03:05;14.00;99.90
52209;DHT22;38507;53.132;6.394;2023-10-09T00:05:32;13.90;99.90
52209;DHT22;38507;53.132;6.394;2023-10-09T00:08:16;14.00;99.90
52209;DHT22;38507;53.132;6.394;2023-10-09T00:10:59;14.00;99.90
52209;DHT22;38507;53.132;6.394;2023-10-09T00:13:39;14.00;99.90
52209;DHT22;38507;53.132;6.394;2023-10-09T00:16:15;14.00;99.90
52209;DHT22;38507;53.132;6.394;2023-10-09T00:18:49;14.00;99.90
52209;DHT22;38507;53.132;6.394;2023-10-09T00:21:19;14.00;99.90
52209;DHT22;38507;53.132;6.394;2023-10-09T00:23:49;14.00;99.90
52209;DHT22;38507;53.132;6.394;2023-10-09T00:26:25;14.00;99.90
52209;DHT22;38507;53.132;6.394;2023-10-09T00:28:51;14.00;99.90
52209;DHT22;38507;53.132;6.394;2023-10-09T00:31:20;14.00;99.90
52209;DHT22;38507;53.132;6.394;2023-10-09T00:34:01;14.00;99.90
52209;DHT22;38507;53.132;6.394;2023-10-09T00:36:30;14.00;99.90
52209;DHT22;38507;53.132;6.394;2023-10-09T00:38:58;14.00;99.90
52209;DHT22;38507;53.132;6.394;2023-10-09T00:41:26;14.00;99.90
52209;DHT22;38507;53.132;6.394;2023-10-09T00:43:54;14.00;99.90
52209;DHT22;38507;53.132;6.394;2023-10-09T00:46:24;14.00;99.90
52209;DHT22;38507;53.132;6.394;2023-10-09T00:49:00;14.00;99.90
52209;DHT22;38507;53.132;6.394;2023-10-09T00:51:28;14.00;99.90
52209;DHT22;38507;53.132;6.394;2023-10-09T00:54:01;14.00;99.90
52209;DHT22;38507;53.132;6.394;2023-10-09T00:56:34;14.00;99.90
52209;DHT22;38507;53.132;6.394;2023-10-09T00:59:13;14.00;99.90
52209;DHT22;38507;53.132;6.394;2023-10-09T01:01:42;14.00;99.90
52209;DHT22;38507;53.132;6.394;2023-10-09T01:04:24;14.00;99.90
52209;DHT22;38507;53.132;6.394;2023-10-09T01:06:51;14.00;99.90
52209;DHT22;38507;53.132;6.394;2023-10-09T01:09:37;14.00;99.90
52209;DHT22;38507;53.132;6.394;2023-10-09T01:12:08;14.00;99.90
52209;DHT22;38507;53.132;6.394;2023-10-09T01:14:45;14.00;99.90
52209;DHT22;38507;53.132;6.394;2023-10-09T01:17:11;14.00;99.90
52209;DHT22;38507;53.132;6.394;2023-10-09T01:19:44;14.00;99.90
52209;DHT22;38507;53.132;6.394;2023-10-09T01:22:10;14.10;99.90
52209;DHT22;38507;53.132;6.394;2023-10-09T01:24:41;14.10;99.90
52209;DHT22;38507;53.132;6.394;2023-10-09T01:27:07;14.10;99.90
52209;DHT22;38507;53.132;6.394;2023-10-09T01:29:40;14.00;99.90
52209;DHT22;38507;53.132;6.394;2023-10-09T01:32:07;14.00;99.90
52209;DHT22;38507;53.132;6.394;2023-10-09T01:34:42;14.00;99.90
52209;DHT22;38507;53.132;6.394;2023-10-09T01:37:09;14.00;99.90
52209;DHT22;38507;53.132;6.394;2023-10-09T01:39:45;14.00;99.90
52209;DHT22;38507;53.132;6.394;2023-10-09T01:42:13;14.10;99.90
52209;DHT22;38507;53.132;6.394;2023-10-09T01:44:48;14.00;99.90
52209;DHT22;38507;53.132;6.394;2023-10-09T01:47:14;14.00;99.90
52209;DHT22;38507;53.132;6.394;2023-10-09T01:49:43;14.00;99.90
52209;DHT22;38507;53.132;6.394;2023-10-09T01:52:10;14.00;99.90
52209;DHT22;38507;53.132;6.394;2023-10-09T01:54:42;14.00;99.90
52209;DHT22;38507;53.132;6.394;2023-10-09T01:57:13;14.00;99.90
52209;DHT22;38507;53.132;6.394;2023-10-09T01:59:39;14.00;99.90
52209;DHT22;38507;53.132;6.394;2023-10-09T02:02:10;14.00;99.90
52209;DHT22;38507;53.132;6.394;2023-10-09T02:05:03;14.00;99.90
52209;DHT22;38507;53.132;6.394;2023-10-09T02:07:35;14.00;99.90
52209;DHT22;38507;53.132;6.394;2023-10-09T02:10:20;14.00;99.90
52209;DHT22;38507;53.132;6.394;2023-10-09T02:13:06;14.00;99.90
52209;DHT22;38507;53.132;6.394;2023-10-09T02:15:35;14.00;99.90
52209;DHT22;38507;53.132;6.394;2023-10-09T02:18:22;14.00;99.90
52209;DHT22;38507;53.132;6.394;2023-10-09T02:23:27;14.00;99.90
52209;DHT22;38507;53.132;6.394;2023-10-09T02:26:23;14.00;99.90
52209;DHT22;38507;53.132;6.394;2023-10-09T02:28:54;14.10;99.90
52209;DHT22;38507;53.132;6.394;2023-10-09T02:31:30;14.10;99.90
52209;DHT22;38507;53.132;6.394;2023-10-09T02:34:06;14.10;99.90
52209;DHT22;38507;53.132;6.394;2023-10-09T02:36:33;14.10;99.90
52209;DHT22;38507;53.132;6.394;2023-10-09T02:39:15;14.10;99.90
52209;DHT22;38507;53.132;6.394;2023-10-09T02:41:55;14.10;99.90
52209;DHT22;38507;53.132;6.394;2023-10-09T02:44:27;14.10;99.90
52209;DHT22;38507;53.132;6.394;2023-10-09T02:46:55;14.20;99.90
52209;DHT22;38507;53.132;6.394;2023-10-09T02:49:24;14.10;99.90
52209;DHT22;38507;53.132;6.394;2023-10-09T02:51:50;14.10;99.90
52209;DHT22;38507;53.132;6.394;2023-10-09T02:54:19;14.10;99.90
52209;DHT22;38507;53.132;6.394;2023-10-09T02:56:48;14.10;99.90
52209;DHT22;38507;53.132;6.394;2023-10-09T02:59:21;14.10;99.90
52209;DHT22;38507;53.132;6.394;2023-10-09T03:01:48;14.10;99.90
52209;DHT22;38507;53.132;6.394;2023-10-09T03:04:14;14.10;99.90
52209;DHT22;38507;53.132;6.394;2023-10-09T03:06:41;14.10;99.90
52209;DHT22;38507;53.132;6.394;2023-10-09T03:09:20;14.10;99.90
52209;DHT22;38507;53.132;6.394;2023-10-09T03:11:56;14.10;99.90
52209;DHT22;38507;53.132;6.394;2023-10-09T03:14:28;14.10;99.90
52209;DHT22;38507;53.132;6.394;2023-10-09T03:16:55;14.10;99.90
52209;DHT22;38507;53.132;6.394;2023-10-09T03:19:28;14.20;99.90
52209;DHT22;38507;53.132;6.394;2023-10-09T03:21:56;14.20;99.90
52209;DHT22;38507;53.132;6.394;2023-10-09T03:24:26;14.20;99.90
52209;DHT22;38507;53.132;6.394;2023-10-09T03:26:53;14.30;99.90
52209;DHT22;38507;53.132;6.394;2023-10-09T03:29:21;14.30;99.90
52209;DHT22;38507;53.132;6.394;2023-10-09T03:31:47;14.30;99.90
52209;DHT22;38507;53.132;6.394;2023-10-09T03:34:16;14.40;99.90
52209;DHT22;38507;53.132;6.394;2023-10-09T03:36:42;14.50;99.90
52209;DHT22;38507;53.132;6.394;2023-10-09T03:39:09;14.50;99.90
52209;DHT22;38507;53.132;6.394;2023-10-09T03:41:54;14.60;99.90
52209;DHT22;38507;53.132;6.394;2023-10-09T03:44:22;14.70;99.90
52209;DHT22;38507;53.132;6.394;2023-10-09T03:46:48;14.80;99.90
52209;DHT22;38507;53.132;6.394;2023-10-09T03:49:16;14.90;99.90
52209;DHT22;38507;53.132;6.394;2023-10-09T03:51:50;14.90;99.90
52209;DHT22;38507;53.132;6.394;2023-10-09T03:54:16;15.00;99.90
52209;DHT22;38507;53.132;6.394;2023-10-09T03:56:48;15.00;99.90
52209;DHT22;38507;53.132;6.394;2023-10-09T03:59:17;15.10;99.90
52209;DHT22;38507;53.132;6.394;2023-10-09T04:01:45;15.10;99.90
52209;DHT22;38507;53.132;6.394;2023-10-09T04:04:12;15.20;99.90
52209;DHT22;38507;53.132;6.394;2023-10-09T04:06:40;15.20;99.90
52209;DHT22;38507;53.132;6.394;2023-10-09T04:09:07;15.30;99.90
52209;DHT22;38507;53.132;6.394;2023-10-09T04:11:54;15.30;99.90
52209;DHT22;38507;53.132;6.394;2023-10-09T04:14:36;15.30;99.90
52209;DHT22;38507;53.132;6.394;2023-10-09T04:17:02;15.30;99.90
52209;DHT22;38507;53.132;6.394;2023-10-09T04:19:30;15.30;99.90
52209;DHT22;38507;53.132;6.394;2023-10-09T04:22:05;15.30;99.90
52209;DHT22;38507;53.132;6.394;2023-10-09T04:24:34;15.30;99.90
52209;DHT22;38507;53.132;6.394;2023-10-09T04:27:09;15.30;99.90
52209;DHT22;38507;53.132;6.394;2023-10-09T04:29:35;15.30;99.90
52209;DHT22;38507;53.132;6.394;2023-10-09T04:32:04;15.30;99.90
52209;DHT22;38507;53.132;6.394;2023-10-09T04:34:34;15.30;99.90
52209;DHT22;38507;53.132;6.394;2023-10-09T04:37:13;15.40;99.90
52209;DHT22;38507;53.132;6.394;2023-10-09T04:39:39;15.40;99.90
52209;DHT22;38507;53.132;6.394;2023-10-09T04:42:25;15.40;99.90
52209;DHT22;38507;53.132;6.394;2023-10-09T04:44:51;15.40;99.90
52209;DHT22;38507;53.132;6.394;2023-10-09T04:47:27;15.40;99.90
52209;DHT22;38507;53.132;6.394;2023-10-09T04:50:05;15.40;99.90
52209;DHT22;38507;53.132;6.394;2023-10-09T04:52:40;15.40;99.90
52209;DHT22;38507;53.132;6.394;2023-10-09T04:55:07;15.40;99.90
52209;DHT22;38507;53.132;6.394;2023-10-09T04:57:40;15.40;99.90
52209;DHT22;38507;53.132;6.394;2023-10-09T05:00:13;15.50;99.90
52209;DHT22;38507;53.132;6.394;2023-10-09T05:02:56;15.50;99.90
52209;DHT22;38507;53.132;6.394;2023-10-09T05:05:27;15.50;99.90
52209;DHT22;38507;53.132;6.394;2023-10-09T05:08:11;15.50;99.90
52209;DHT22;38507;53.132;6.394;2023-10-09T05:10:47;15.60;99.90
52209;DHT22;38507;53.132;6.394;2023-10-09T05:13:37;15.50;99.90
52209;DHT22;38507;53.132;6.394;2023-10-09T05:18:53;15.60;99.90
52209;DHT22;38507;53.132;6.394;2023-10-09T05:21:33;15.60;99.90
52209;DHT22;38507;53.132;6.394;2023-10-09T05:24:10;15.60;99.90
52209;DHT22;38507;53.132;6.394;2023-10-09T05:26:40;15.60;99.90
52209;DHT22;38507;53.132;6.394;2023-10-09T05:29:16;15.60;99.90
52209;DHT22;38507;53.132;6.394;2023-10-09T05:31:48;15.60;99.90
52209;DHT22;38507;53.132;6.394;2023-10-09T05:34:33;15.70;99.90
52209;DHT22;38507;53.132;6.394;2023-10-09T05:37:08;15.70;99.90
52209;DHT22;38507;53.132;6.394;2023-10-09T05:39:46;15.70;99.90
52209;DHT22;38507;53.132;6.394;2023-10-09T05:42:36;15.70;99.90
52209;DHT22;38507;53.132;6.394;2023-10-09T05:45:09;15.70;99.90
52209;DHT22;38507;53.132;6.394;2023-10-09T05:47:48;15.70;99.90
52209;DHT22;38507;53.132;6.394;2023-10-09T05:50:26;15.70;99.90
52209;DHT22;38507;53.132;6.394;2023-10-09T05:52:52;15.70;99.90
52209;DHT22;38507;53.132;6.394;2023-10-09T05:55:25;15.80;99.90
52209;DHT22;38507;53.132;6.394;2023-10-09T05:58:10;15.80;99.90
52209;DHT22;38507;53.132;6.394;2023-10-09T06:00:51;15.80;99.90
52209;DHT22;38507;53.132;6.394;2023-10-09T06:03:52;15.80;99.90
52209;DHT22;38507;53.132;6.394;2023-10-09T06:06:21;15.80;99.90
52209;DHT22;38507;53.132;6.394;2023-10-09T06:09:03;15.90;99.90
52209;DHT22;38507;53.132;6.394;2023-10-09T06:11:41;15.90;99.90
52209;DHT22;38507;53.132;6.394;2023-10-09T06:14:18;15.90;99.90
52209;DHT22;38507;53.132;6.394;2023-10-09T06:16:52;15.90;99.90
52209;DHT22;38507;53.132;6.394;2023-10-09T06:19:37;15.90;99.90
52209;DHT22;38507;53.132;6.394;2023-10-09T06:22:09;15.90;99.90
52209;DHT22;38507;53.132;6.394;2023-10-09T06:24:55;15.90;99.90
52209;DHT22;38507;53.132;6.394;2023-10-09T06:27:23;16.00;99.90
52209;DHT22;38507;53.132;6.394;2023-10-09T06:29:53;15.90;99.90
52209;DHT22;38507;53.132;6.394;2023-10-09T06:32:42;15.90;99.90
52209;DHT22;38507;53.132;6.394;2023-10-09T06:35:24;16.00;99.90
52209;DHT22;38507;53.132;6.394;2023-10-09T06:37:57;16.00;99.90
52209;DHT22;38507;53.132;6.394;2023-10-09T06:40:47;16.00;99.90
52209;DHT22;38507;53.132;6.394;2023-10-09T06:43:31;15.90;99.90
52209;DHT22;38507;53.132;6.394;2023-10-09T06:46:02;16.00;99.90
52209;DHT22;38507;53.132;6.394;2023-10-09T06:49:00;16.00;99.90
52209;DHT22;38507;53.132;6.394;2023-10-09T06:51:44;16.00;99.90
52209;DHT22;38507;53.132;6.394;2023-10-09T06:54:12;16.00;99.90
52209;DHT22;38507;53.132;6.394;2023-10-09T06:56:41;16.00;99.90
52209;DHT22;38507;53.132;6.394;2023-10-09T06:59:18;16.00;99.90
52209;DHT22;38507;53.132;6.394;2023-10-09T07:01:48;16.00;99.90
52209;DHT22;38507;53.132;6.394;2023-10-09T07:04:33;16.00;99.90
52209;DHT22;38507;53.132;6.394;2023-10-09T07:07:02;16.00;99.90
52209;DHT22;38507;53.132;6.394;2023-10-09T07:09:30;16.00;99.90
52209;DHT22;38507;53.132;6.394;2023-10-09T07:12:10;16.00;99.90
52209;DHT22;38507;53.132;6.394;2023-10-09T07:14:46;16.00;99.90
52209;DHT22;38507;53.132;6.394;2023-10-09T07:17:11;16.00;99.90
52209;DHT22;38507;53.132;6.394;2023-10-09T07:20:11;16.00;99.90
52209;DHT22;38507;53.132;6.394;2023-10-09T07:22:41;16.00;99.90
52209;DHT22;38507;53.132;6.394;2023-10-09T07:25:21;16.00;99.90
52209;DHT22;38507;53.132;6.394;2023-10-09T07:27:58;16.00;99.90
52209;DHT22;38507;53.132;6.394;2023-10-09T07:30:25;16.00;99.90
52209;DHT22;38507;53.132;6.394;2023-10-09T07:32:58;16.00;99.90
52209;DHT22;38507;53.132;6.394;2023-10-09T07:35:46;16.00;99.90
52209;DHT22;38507;53.132;6.394;2023-10-09T07:38:20;16.00;99.90
52209;DHT22;38507;53.132;6.394;2023-10-09T07:40:48;16.00;99.90
52209;DHT22;38507;53.132;6.394;2023-10-09T07:43:34;16.00;99.90
52209;DHT22;38507;53.132;6.394;2023-10-09T07:46:18;16.00;99.90
52209;DHT22;38507;53.132;6.394;2023-10-09T07:49:17;16.00;99.90
52209;DHT22;38507;53.132;6.394;2023-10-09T07:51:50;16.00;99.90
52209;DHT22;38507;53.132;6.394;2023-10-09T07:54:18;16.10;99.90
52209;DHT22;38507;53.132;6.394;2023-10-09T07:56:58;16.00;99.90
52209;DHT22;38507;53.132;6.394;2023-10-09T07:59:42;16.00;99.90
52209;DHT22;38507;53.132;6.394;2023-10-09T08:02:20;16.00;99.90
52209;DHT22;38507;53.132;6.394;2023-10-09T08:05:00;16.10;99.90
52209;DHT22;38507;53.132;6.394;2023-10-09T08:07:30;16.10;99.90
52209;DHT22;38507;53.132;6.394;2023-10-09T08:10:07;16.10;99.90
52209;DHT22;38507;53.132;6.394;2023-10-09T08:12:42;16.10;99.90
52209;DHT22;38507;53.132;6.394;2023-10-09T08:15:24;16.10;99.90
52209;DHT22;38507;53.132;6.394;2023-10-09T08:18:00;16.10;99.90
52209;DHT22;38507;53.132;6.394;2023-10-09T08:20:36;16.10;99.90
52209;DHT22;38507;53.132;6.394;2023-10-09T08:23:16;16.20;99.90
52209;DHT22;38507;53.132;6.394;2023-10-09T08:26:04;16.20;99.90
52209;DHT22;38507;53.132;6.394;2023-10-09T08:28:40;16.20;99.90
52209;DHT22;38507;53.132;6.394;2023-10-09T08:31:12;16.20;99.90
52209;DHT22;38507;53.132;6.394;2023-10-09T08:33:56;16.20;99.90
52209;DHT22;38507;53.132;6.394;2023-10-09T08:36:27;16.20;99.90
52209;DHT22;38507;53.132;6.394;2023-10-09T08:39:02;16.20;99.90
52209;DHT22;38507;53.132;6.394;2023-10-09T08:41:40;16.20;99.90
52209;DHT22;38507;53.132;6.394;2023-10-09T08:44:07;16.20;99.90
52209;DHT22;38507;53.132;6.394;2023-10-09T08:46:32;16.20;99.90
52209;DHT22;38507;53.132;6.394;2023-10-09T08:48:59;16.20;99.90
52209;DHT22;38507;53.132;6.394;2023-10-09T08:51:27;16.20;99.90
52209;DHT22;38507;53.132;6.394;2023-10-09T08:53:53;16.20;99.90
52209;DHT22;38507;53.132;6.394;2023-10-09T08:59:21;16.20;99.90
52209;DHT22;38507;53.132;6.394;2023-10-09T09:01:49;16.20;99.90
52209;DHT22;38507;53.132;6.394;2023-10-09T09:04:36;16.30;99.90
52209;DHT22;38507;53.132;6.394;2023-10-09T09:07:24;16.30;99.90
52209;DHT22;38507;53.132;6.394;2023-10-09T09:09:57;16.30;99.90
52209;DHT22;38507;53.132;6.394;2023-10-09T09:12:23;16.30;99.90
52209;DHT22;38507;53.132;6.394;2023-10-09T09:14:49;16.40;99.90
52209;DHT22;38507;53.132;6.394;2023-10-09T09:17:22;16.40;99.90
52209;DHT22;38507;53.132;6.394;2023-10-09T09:19:49;16.30;99.90
52209;DHT22;38507;53.132;6.394;2023-10-09T09:22:15;16.40;99.90
52209;DHT22;38507;53.132;6.394;2023-10-09T09:24:57;16.40;99.90
52209;DHT22;38507;53.132;6.394;2023-10-09T09:27:47;16.40;99.90
52209;DHT22;38507;53.132;6.394;2023-10-09T09:30:24;16.50;99.90
52209;DHT22;38507;53.132;6.394;2023-10-09T09:32:52;16.50;99.90
52209;DHT22;38507;53.132;6.394;2023-10-09T09:36:04;16.60;99.90
52209;DHT22;38507;53.132;6.394;2023-10-09T09:38:31;16.50;99.90
52209;DHT22;38507;53.132;6.394;2023-10-09T09:41:27;16.50;99.90
52209;DHT22;38507;53.132;6.394;2023-10-09T09:43:56;16.50;99.90
52209;DHT22;38507;53.132;6.394;2023-10-09T09:46:23;16.60;99.90
52209;DHT22;38507;53.132;6.394;2023-10-09T09:49:08;16.60;99.90
52209;DHT22;38507;53.132;6.394;2023-10-09T09:51:45;16.70;99.90
52209;DHT22;38507;53.132;6.394;2023-10-09T09:54:15;16.80;99.90
52209;DHT22;38507;53.132;6.394;2023-10-09T09:56:44;16.70;99.90
52209;DHT22;38507;53.132;6.394;2023-10-09T09:59:25;16.70;99.90
52209;DHT22;38507;53.132;6.394;2023-10-09T10:01:55;16.80;99.90
52209;DHT22;38507;53.132;6.394;2023-10-09T10:04:32;16.80;99.90
52209;DHT22;38507;53.132;6.394;2023-10-09T10:07:01;16.80;99.90
52209;DHT22;38507;53.132;6.394;2023-10-09T10:09:38;16.80;99.90
52209;DHT22;38507;53.132;6.394;2023-10-09T10:12:08;16.80;99.90
52209;DHT22;38507;53.132;6.394;2023-10-09T10:14:56;16.90;99.90
52209;DHT22;38507;53.132;6.394;2023-10-09T10:17:31;16.80;99.90
52209;DHT22;38507;53.132;6.394;2023-10-09T10:22:41;16.80;99.90
52209;DHT22;38507;53.132;6.394;2023-10-09T10:25:32;16.90;99.90
52209;DHT22;38507;53.132;6.394;2023-10-09T10:28:21;16.80;99.90
52209;DHT22;38507;53.132;6.394;2023-10-09T10:31:11;16.80;99.90
52209;DHT22;38507;53.132;6.394;2023-10-09T10:36:25;16.80;99.90
52209;DHT22;38507;53.132;6.394;2023-10-09T10:39:06;16.90;99.90
52209;DHT22;38507;53.132;6.394;2023-10-09T10:41:55;16.80;99.90
52209;DHT22;38507;53.132;6.394;2023-10-09T10:44:28;16.70;99.90
52209;DHT22;38507;53.132;6.394;2023-10-09T10:47:08;16.80;99.90
52209;DHT22;38507;53.132;6.394;2023-10-09T10:49:49;17.00;99.90
52209;DHT22;38507;53.132;6.394;2023-10-09T10:52:26;16.90;99.90
52209;DHT22;38507;53.132;6.394;2023-10-09T10:55:11;16.80;99.90
52209;DHT22;38507;53.132;6.394;2023-10-09T10:58:15;16.80;99.90
52209;DHT22;38507;53.132;6.394;2023-10-09T11:00:54;16.90;99.90
52209;DHT22;38507;53.132;6.394;2023-10-09T11:03:23;16.90;99.90
52209;DHT22;38507;53.132;6.394;2023-10-09T11:06:03;16.80;99.90
52209;DHT22;38507;53.132;6.394;2023-10-09T11:08:47;16.90;99.90
52209;DHT22;38507;53.132;6.394;2023-10-09T11:11:24;16.80;99.90
52209;DHT22;38507;53.132;6.394;2023-10-09T11:14:13;16.80;99.90
52209;DHT22;38507;53.132;6.394;2023-10-09T11:16:51;16.80;99.90
52209;DHT22;38507;53.132;6.394;2023-10-09T11:19:23;16.80;99.90
52209;DHT22;38507;53.132;6.394;2023-10-09T11:21:55;16.80;99.90
52209;DHT22;38507;53.132;6.394;2023-10-09T11:24:47;16.80;99.90
52209;DHT22;38507;53.132;6.394;2023-10-09T11:27:25;16.80;99.90
52209;DHT22;38507;53.132;6.394;2023-10-09T11:29:54;16.80;99.90
52209;DHT22;38507;53.132;6.394;2023-10-09T11:32:21;16.80;99.90
52209;DHT22;38507;53.132;6.394;2023-10-09T11:35:14;16.80;99.90
52209;DHT22;38507;53.132;6.394;2023-10-09T11:37:55;16.80;99.90
52209;DHT22;38507;53.132;6.394;2023-10-09T11:40:32;16.80;99.90
52209;DHT22;38507;53.132;6.394;2023-10-09T11:43:48;16.80;99.90
52209;DHT22;38507;53.132;6.394;2023-10-09T11:46:17;16.80;99.90
52209;DHT22;38507;53.132;6.394;2023-10-09T11:49:04;16.90;99.90
52209;DHT22;38507;53.132;6.394;2023-10-09T11:51:44;16.90;99.90
52209;DHT22;38507;53.132;6.394;2023-10-09T11:54:31;16.90;99.90
52209;DHT22;38507;53.132;6.394;2023-10-09T11:57:01;16.90;99.90
52209;DHT22;38507;53.132;6.394;2023-10-09T11:59:31;17.00;99.90
52209;DHT22;38507;53.132;6.394;2023-10-09T12:02:04;17.10;99.90
52209;DHT22;38507;53.132;6.394;2023-10-09T12:04:30;17.10;99.90
52209;DHT22;38507;53.132;6.394;2023-10-09T12:06:56;17.20;99.90
52209;DHT22;38507;53.132;6.394;2023-10-09T12:09:37;17.20;99.90
52209;DHT22;38507;53.132;6.394;2023-10-09T12:12:04;17.30;99.90
52209;DHT22;38507;53.132;6.394;2023-10-09T12:14:31;17.40;99.90
52209;DHT22;38507;53.132;6.394;2023-10-09T12:17:01;17.40;99.90
52209;DHT22;38507;53.132;6.394;2023-10-09T12:19:38;17.40;99.90
52209;DHT22;38507;53.132;6.394;2023-10-09T12:22:05;17.40;99.90
52209;DHT22;38507;53.132;6.394;2023-10-09T12:24:33;17.40;99.90
52209;DHT22;38507;53.132;6.394;2023-10-09T12:26:59;17.40;99.90
52209;DHT22;38507;53.132;6.394;2023-10-09T12:29:25;17.40;99.90
52209;DHT22;38507;53.132;6.394;2023-10-09T12:31:56;17.40;99.90
52209;DHT22;38507;53.132;6.394;2023-10-09T12:34:25;17.50;99.90
52209;DHT22;38507;53.132;6.394;2023-10-09T12:36:54;17.50;99.90
52209;DHT22;38507;53.132;6.394;2023-10-09T12:39:22;17.50;99.90
52209;DHT22;38507;53.132;6.394;2023-10-09T12:41:49;17.50;99.90
52209;DHT22;38507;53.132;6.394;2023-10-09T12:44:19;17.50;99.90
52209;DHT22;38507;53.132;6.394;2023-10-09T12:46:45;17.50;99.90
52209;DHT22;38507;53.132;6.394;2023-10-09T12:49:21;17.50;99.90
52209;DHT22;38507;53.132;6.394;2023-10-09T12:51:54;17.50;99.90
52209;DHT22;38507;53.132;6.394;2023-10-09T12:54:20;17.40;99.90
52209;DHT22;38507;53.132;6.394;2023-10-09T12:56:46;17.40;99.90
52209;DHT22;38507;53.132;6.394;2023-10-09T12:59:14;17.50;99.90
52209;DHT22;38507;53.132;6.394;2023-10-09T13:01:41;17.50;99.90
52209;DHT22;38507;53.132;6.394;2023-10-09T13:04:14;17.50;99.90
52209;DHT22;38507;53.132;6.394;2023-10-09T13:06:43;17.50;99.90
52209;DHT22;38507;53.132;6.394;2023-10-09T13:09:13;17.60;99.90
52209;DHT22;38507;53.132;6.394;2023-10-09T13:11:40;17.60;99.90
52209;DHT22;38507;53.132;6.394;2023-10-09T13:14:09;17.60;99.90
52209;DHT22;38507;53.132;6.394;2023-10-09T13:16:48;17.50;99.90
52209;DHT22;38507;53.132;6.394;2023-10-09T13:19:16;17.50;99.90
52209;DHT22;38507;53.132;6.394;2023-10-09T13:21:43;17.50;99.90
52209;DHT22;38507;53.132;6.394;2023-10-09T13:24:09;17.70;99.90
52209;DHT22;38507;53.132;6.394;2023-10-09T13:26:39;17.60;99.90
52209;DHT22;38507;53.132;6.394;2023-10-09T13:29:07;17.60;99.90
52209;DHT22;38507;53.132;6.394;2023-10-09T13:31:35;17.60;99.90
52209;DHT22;38507;53.132;6.394;2023-10-09T13:34:04;17.60;99.90
52209;DHT22;38507;53.132;6.394;2023-10-09T13:36:32;17.50;99.90
52209;DHT22;38507;53.132;6.394;2023-10-09T13:39:02;17.60;99.90
52209;DHT22;38507;53.132;6.394;2023-10-09T13:41:52;17.50;99.90
52209;DHT22;38507;53.132;6.394;2023-10-09T13:46:53;17.50;99.90
52209;DHT22;38507;53.132;6.394;2023-10-09T13:49:19;17.50;99.90
52209;DHT22;38507;53.132;6.394;2023-10-09T13:51:48;17.50;99.90
52209;DHT22;38507;53.132;6.394;2023-10-09T13:54:16;17.60;99.90
52209;DHT22;38507;53.132;6.394;2023-10-09T13:56:57;17.70;99.90
52209;DHT22;38507;53.132;6.394;2023-10-09T13:59:23;17.60;99.90
52209;DHT22;38507;53.132;6.394;2023-10-09T14:01:54;17.60;99.90
52209;DHT22;38507;53.132;6.394;2023-10-09T14:04:23;17.50;99.90
52209;DHT22;38507;53.132;6.394;2023-10-09T14:06:49;17.50;99.90
52209;DHT22;38507;53.132;6.394;2023-10-09T14:09:26;17.50;99.90
52209;DHT22;38507;53.132;6.394;2023-10-09T14:12:04;17.50;99.90
52209;DHT22;38507;53.132;6.394;2023-10-09T14:17:12;17.40;99.90
52209;DHT22;38507;53.132;6.394;2023-10-09T14:19:42;17.40;99.90
52209;DHT22;38507;53.132;6.394;2023-10-09T14:22:19;17.40;99.90
52209;DHT22;38507;53.132;6.394;2023-10-09T14:24:45;17.40;99.90
52209;DHT22;38507;53.132;6.394;2023-10-09T14:27:12;17.40;99.90
52209;DHT22;38507;53.132;6.394;2023-10-09T14:29:53;17.40;99.90
52209;DHT22;38507;53.132;6.394;2023-10-09T14:32:22;17.30;99.90
52209;DHT22;38507;53.132;6.394;2023-10-09T14:34:55;17.20;99.90
52209;DHT22;38507;53.132;6.394;2023-10-09T14:37:26;17.30;99.90
52209;DHT22;38507;53.132;6.394;2023-10-09T14:39:52;17.20;99.90
52209;DHT22;38507;53.132;6.394;2023-10-09T14:42:18;17.20;99.90
52209;DHT22;38507;53.132;6.394;2023-10-09T14:44:46;17.20;99.90
52209;DHT22;38507;53.132;6.394;2023-10-09T14:47:12;17.20;99.90
52209;DHT22;38507;53.132;6.394;2023-10-09T14:49:39;17.10;99.90
52209;DHT22;38507;53.132;6.394;2023-10-09T14:52:12;17.20;99.90
52209;DHT22;38507;53.132;6.394;2023-10-09T14:54:42;17.10;99.90
52209;DHT22;38507;53.132;6.394;2023-10-09T14:57:08;17.10;99.90
52209;DHT22;38507;53.132;6.394;2023-10-09T14:59:37;17.10;99.90
52209;DHT22;38507;53.132;6.394;2023-10-09T15:02:03;17.10;99.90
52209;DHT22;38507;53.132;6.394;2023-10-09T15:04:31;17.10;99.90
52209;DHT22;38507;53.132;6.394;2023-10-09T15:06:57;17.10;99.90
52209;DHT22;38507;53.132;6.394;2023-10-09T15:09:22;17.10;99.90
52209;DHT22;38507;53.132;6.394;2023-10-09T15:11:51;17.10;99.90
52209;DHT22;38507;53.132;6.394;2023-10-09T15:14:18;17.10;99.90
52209;DHT22;38507;53.132;6.394;2023-10-09T15:16:47;17.00;99.90
52209;DHT22;38507;53.132;6.394;2023-10-09T15:19:13;17.00;99.90
52209;DHT22;38507;53.132;6.394;2023-10-09T15:21:40;17.00;99.90
52209;DHT22;38507;53.132;6.394;2023-10-09T15:24:16;17.00;99.90
52209;DHT22;38507;53.132;6.394;2023-10-09T15:26:45;17.10;99.90
52209;DHT22;38507;53.132;6.394;2023-10-09T15:29:27;17.00;99.90
52209;DHT22;38507;53.132;6.394;2023-10-09T15:32:00;16.90;99.90
52209;DHT22;38507;53.132;6.394;2023-10-09T15:34:31;16.90;99.90
52209;DHT22;38507;53.132;6.394;2023-10-09T15:36:56;16.90;99.90
52209;DHT22;38507;53.132;6.394;2023-10-09T15:39:22;16.90;99.90
52209;DHT22;38507;53.132;6.394;2023-10-09T15:41:49;16.90;99.90
52209;DHT22;38507;53.132;6.394;2023-10-09T15:44:16;16.90;99.90
52209;DHT22;38507;53.132;6.394;2023-10-09T15:46:42;16.90;99.90
52209;DHT22;38507;53.132;6.394;2023-10-09T15:49:11;16.80;99.90
52209;DHT22;38507;53.132;6.394;2023-10-09T15:51:39;16.80;99.90
52209;DHT22;38507;53.132;6.394;2023-10-09T15:54:05;16.80;99.90
52209;DHT22;38507;53.132;6.394;2023-10-09T15:56:30;16.80;99.90
52209;DHT22;38507;53.132;6.394;2023-10-09T15:58:56;16.80;99.90
52209;DHT22;38507;53.132;6.394;2023-10-09T16:01:22;16.80;99.90
52209;DHT22;38507;53.132;6.394;2023-10-09T16:03:48;16.70;99.90
52209;DHT22;38507;53.132;6.394;2023-10-09T16:06:15;16.70;99.90
52209;DHT22;38507;53.132;6.394;2023-10-09T16:08:42;16.70;99.90
52209;DHT22;38507;53.132;6.394;2023-10-09T16:11:11;16.70;99.90
52209;DHT22;38507;53.132;6.394;2023-10-09T16:13:38;16.60;99.90
52209;DHT22;38507;53.132;6.394;2023-10-09T16:16:05;16.60;99.90
52209;DHT22;38507;53.132;6.394;2023-10-09T16:18:34;16.60;99.90
52209;DHT22;38507;53.132;6.394;2023-10-09T16:21:00;16.60;99.90
52209;DHT22;38507;53.132;6.394;2023-10-09T16:23:31;16.60;99.90
52209;DHT22;38507;53.132;6.394;2023-10-09T16:25:56;16.50;99.90
52209;DHT22;38507;53.132;6.394;2023-10-09T16:28:22;16.50;99.90